Time;durP1;ratioP1;P1;durP2;ratioP2;P2;SDS_P1;SDS_P2;PMS_P1;PMS_P2;Temp;Humidity;BMP_temperature;BMP_pressure;BME280_temperature;BME280_humidity;BME280_pressure;Samples;Min_cycle;Max_cycle;Signal;HPM_P1;HPM_P2
2024/01/04 05:02:30;;;;;;;0.90;0.80;;;8.20;97.30;;;;;;5132165;23;20489;-93
2024/01/04 05:04:55;;;;;;;1.47;1.37;;;8.10;97.30;;;;;;4973952;28;20434;-92
2024/01/04 05:07:21;;;;;;;0.90;0.80;;;8.10;97.30;;;;;;4971246;28;20187;-93
2024/01/04 05:09:46;;;;;;;1.00;0.90;;;8.10;97.30;;;;;;4974652;28;20197;-91
2024/01/04 05:12:12;;;;;;;1.00;0.90;;;8.00;97.30;;;;;;4974139;28;20202;-91
2024/01/04 05:14:37;;;;;;;0.93;0.83;;;8.10;97.30;;;;;;4983025;28;20186;-92
2024/01/04 05:17:04;;;;;;;0.90;0.80;;;8.00;97.30;;;;;;4974302;28;20687;-91
2024/01/04 05:19:29;;;;;;;1.00;0.90;;;8.00;97.30;;;;;;4974490;28;20521;-91
2024/01/04 05:21:54;;;;;;;1.60;1.50;;;8.00;97.30;;;;;;4974555;28;20244;-90
2024/01/04 05:24:20;;;;;;;0.90;0.80;;;7.90;97.30;;;;;;4971113;28;20187;-91
2024/01/04 05:26:45;;;;;;;4.80;1.10;;;7.90;97.30;;;;;;4974172;28;20653;-92
2024/01/04 05:29:11;;;;;;;1.00;0.90;;;7.90;97.30;;;;;;4974357;28;20290;-90
2024/01/04 05:31:36;;;;;;;0.80;0.70;;;7.90;97.30;;;;;;4972276;28;20262;-92
2024/01/04 05:34:02;;;;;;;0.80;0.70;;;7.90;97.30;;;;;;4974069;28;20350;-94
2024/01/04 05:36:30;;;;;;;0.90;0.80;;;7.90;97.30;;;;;;4974256;28;20236;-90
2024/01/04 05:38:55;;;;;;;0.90;0.80;;;7.90;97.30;;;;;;4974097;28;20198;-95
2024/01/04 05:41:21;;;;;;;0.90;0.80;;;7.90;97.30;;;;;;4974667;28;20453;-92
2024/01/04 05:43:46;;;;;;;0.90;0.80;;;7.90;97.30;;;;;;4975397;28;20310;-91
2024/01/04 05:46:12;;;;;;;0.93;0.83;;;7.90;97.30;;;;;;4975131;28;20335;-92
2024/01/04 05:48:37;;;;;;;0.90;0.80;;;8.00;97.30;;;;;;4974894;28;20190;-92
2024/01/04 05:51:04;;;;;;;0.90;0.80;;;8.00;97.30;;;;;;4974440;28;20286;-92
2024/01/04 05:53:29;;;;;;;0.90;0.80;;;8.00;97.30;;;;;;4973951;28;20877;-91
2024/01/04 05:55:55;;;;;;;0.90;0.80;;;8.00;97.30;;;;;;4976716;28;20229;-92
2024/01/04 05:58:20;;;;;;;0.80;0.70;;;8.00;97.30;;;;;;4970807;28;20270;-93
2024/01/04 06:00:47;;;;;;;0.90;0.80;;;8.10;97.30;;;;;;4973978;28;20617;-91
2024/01/04 06:03:12;;;;;;;1.10;1.00;;;8.10;97.30;;;;;;4973526;28;20232;-92
2024/01/04 06:05:38;;;;;;;1.43;1.33;;;8.20;97.30;;;;;;4975626;28;20414;-92
2024/01/04 06:08:04;;;;;;;0.80;0.70;;;8.20;97.30;;;;;;4970477;28;20672;-92
2024/01/04 06:10:29;;;;;;;0.90;0.80;;;8.30;97.30;;;;;;4975891;28;20218;-92
2024/01/04 06:12:55;;;;;;;0.80;0.70;;;8.30;97.30;;;;;;4973322;28;20598;-91
2024/01/04 06:15:20;;;;;;;0.80;0.70;;;8.30;97.30;;;;;;4973098;28;20185;-91
2024/01/04 06:17:46;;;;;;;1.60;1.50;;;8.30;97.30;;;;;;4970683;28;20190;-92
2024/01/04 06:26:30;;;;;;;0.90;0.80;;;8.30;97.30;;;;;;4927557;29;20424;-88
2024/01/04 06:28:59;;;;;;;0.90;0.80;;;8.20;97.30;;;;;;4927373;29;20936;-88
2024/01/04 06:31:50;;;;;;;0.80;0.70;;;8.10;97.30;;;;;;4938031;29;20476;-94
2024/01/04 06:34:48;;;;;;;0.90;0.80;;;8.10;97.30;;;;;;4917877;29;20496;-93
2024/01/04 06:37:28;;;;;;;0.87;0.77;;;8.10;97.30;;;;;;4933558;28;20444;-88
2024/01/04 06:39:59;;;;;;;0.93;0.83;;;8.10;97.30;;;;;;4909279;29;20469;-88
2024/01/04 06:42:27;;;;;;;0.80;0.70;;;8.10;97.30;;;;;;4912840;29;20532;-87
2024/01/04 06:44:59;;;;;;;2.10;1.33;;;8.20;97.30;;;;;;4939337;29;20423;-89
2024/01/04 06:47:29;;;;;;;1.00;0.90;;;8.20;97.30;;;;;;4951531;28;20427;-88
2024/01/04 06:50:00;;;;;;;1.00;0.90;;;8.20;97.30;;;;;;4952291;29;20562;-88
2024/01/04 06:52:29;;;;;;;0.97;0.87;;;8.20;97.30;;;;;;4948305;28;20617;-88
2024/01/04 06:55:20;;;;;;;1.07;0.97;;;8.20;97.30;;;;;;4971007;28;20427;-89
2024/01/04 06:57:49;;;;;;;0.90;0.80;;;8.20;97.30;;;;;;4947322;28;20422;-88
2024/01/04 07:00:19;;;;;;;0.83;0.73;;;8.20;97.30;;;;;;4946859;28;20430;-88
2024/01/04 07:02:48;;;;;;;0.90;0.80;;;8.20;97.30;;;;;;4949269;28;20451;-88
2024/01/04 07:05:21;;;;;;;0.80;0.70;;;8.20;97.30;;;;;;4953482;28;20765;-88
2024/01/04 07:07:50;;;;;;;0.93;0.83;;;8.20;97.30;;;;;;4957572;28;20849;-88
2024/01/04 07:10:18;;;;;;;0.80;0.70;;;8.20;97.30;;;;;;4973678;28;20434;-87
2024/01/04 07:12:51;;;;;;;0.90;0.80;;;8.20;97.30;;;;;;4955040;28;20482;-88
2024/01/04 07:15:37;;;;;;;0.90;0.80;;;8.20;97.30;;;;;;4952276;29;20419;-88
2024/01/04 07:18:10;;;;;;;0.90;0.80;;;8.10;97.30;;;;;;4956127;28;20435;-88
2024/01/04 07:20:41;;;;;;;1.00;0.90;;;8.10;97.30;;;;;;4955844;28;20587;-88
2024/01/04 07:23:09;;;;;;;0.97;0.87;;;8.10;97.30;;;;;;4956269;28;20811;-87
2024/01/04 07:26:36;;;;;;;1.57;1.47;;;8.10;97.30;;;;;;4955673;28;20434;-88
2024/01/04 07:29:08;;;;;;;0.90;0.80;;;8.00;97.30;;;;;;4955898;28;20418;-88
2024/01/04 07:31:39;;;;;;;0.90;0.80;;;8.00;97.30;;;;;;4952784;28;20478;-88
2024/01/04 07:34:26;;;;;;;0.90;0.80;;;8.00;97.30;;;;;;4955201;28;20426;-88
2024/01/04 07:37:00;;;;;;;0.90;0.80;;;7.90;97.30;;;;;;4948373;29;20489;-87
2024/01/04 07:39:30;;;;;;;1.00;0.90;;;7.90;97.30;;;;;;4959190;28;20433;-88
2024/01/04 07:41:58;;;;;;;0.90;0.80;;;7.90;97.30;;;;;;4955522;28;20439;-89
2024/01/04 07:44:24;;;;;;;0.90;0.80;;;7.90;97.30;;;;;;4951753;28;20427;-89
2024/01/04 07:46:49;;;;;;;0.93;0.83;;;7.90;97.30;;;;;;4969834;28;20748;-88
2024/01/04 07:49:14;;;;;;;0.90;0.80;;;7.90;97.30;;;;;;4954990;28;20541;-88
2024/01/04 07:51:41;;;;;;;0.90;0.80;;;7.90;97.30;;;;;;4960820;28;20228;-93
2024/01/04 07:54:07;;;;;;;1.10;1.00;;;7.90;97.30;;;;;;4980192;28;20215;-89
2024/01/04 07:56:32;;;;;;;1.67;1.40;;;7.90;97.30;;;;;;4964132;28;20520;-89
2024/01/04 07:58:58;;;;;;;1.00;0.90;;;7.90;97.30;;;;;;4968437;29;20203;-89
2024/01/04 08:01:23;;;;;;;3.73;2.80;;;7.90;97.30;;;;;;4965934;28;20179;-90
2024/01/04 08:03:49;;;;;;;0.90;0.80;;;7.90;97.30;;;;;;4966752;28;20654;-88
2024/01/04 08:06:15;;;;;;;1.03;0.93;;;7.90;97.30;;;;;;4962617;28;20195;-88
2024/01/04 08:08:40;;;;;;;0.97;0.87;;;8.00;97.30;;;;;;4980644;28;20218;-86
2024/01/04 08:11:07;;;;;;;1.00;0.90;;;8.00;97.30;;;;;;4968262;28;20195;-92
2024/01/04 08:13:33;;;;;;;1.27;1.27;;;8.00;97.30;;;;;;4964400;28;20184;-89
2024/01/04 08:16:00;;;;;;;0.80;0.70;;;8.00;97.30;;;;;;4982987;28;20426;-88
2024/01/04 08:18:26;;;;;;;0.97;0.87;;;7.90;97.30;;;;;;4968251;28;20206;-90
2024/01/04 08:20:51;;;;;;;0.90;0.80;;;7.90;97.30;;;;;;4965074;28;20495;-89
2024/01/04 08:23:17;;;;;;;1.13;1.00;;;7.80;97.30;;;;;;4967612;28;20202;-91
2024/01/04 08:25:43;;;;;;;0.90;0.80;;;7.70;97.30;;;;;;4988696;28;20258;-90
2024/01/04 08:28:11;;;;;;;0.90;0.80;;;7.70;97.30;;;;;;4973422;28;20191;-88
2024/01/04 08:30:37;;;;;;;1.40;1.30;;;7.70;97.30;;;;;;4956286;28;20207;-88
2024/01/04 08:33:02;;;;;;;1.10;1.00;;;7.70;97.30;;;;;;4947828;29;21024;-88
2024/01/04 08:35:28;;;;;;;1.00;0.90;;;7.70;97.30;;;;;;4953942;29;20194;-87
2024/01/04 08:37:54;;;;;;;0.80;0.70;;;7.70;97.30;;;;;;4953796;29;20187;-87
2024/01/04 08:40:20;;;;;;;1.10;1.00;;;7.80;97.30;;;;;;4954686;28;20234;-88
2024/01/04 08:42:45;;;;;;;1.00;0.90;;;7.90;97.30;;;;;;4955301;28;20419;-88
2024/01/04 08:45:11;;;;;;;5.33;1.30;;;7.90;97.30;;;;;;4951886;28;20184;-88
2024/01/04 08:47:37;;;;;;;1.43;1.33;;;8.00;97.30;;;;;;4935996;29;20191;-89
2024/01/04 08:50:03;;;;;;;0.80;0.70;;;8.10;97.30;;;;;;4954922;29;20184;-87
2024/01/04 08:52:29;;;;;;;0.80;0.70;;;8.00;97.30;;;;;;4956050;28;20473;-88
2024/01/04 08:54:55;;;;;;;1.03;0.93;;;8.00;97.30;;;;;;4953628;28;20419;-87
2024/01/04 08:57:21;;;;;;;10.20;1.63;;;7.90;97.30;;;;;;4954453;29;20909;-88
2024/01/04 08:59:47;;;;;;;0.90;0.80;;;7.80;97.30;;;;;;4954207;29;20189;-89
2024/01/04 09:02:13;;;;;;;1.00;0.90;;;7.80;97.30;;;;;;4950191;28;20210;-88
2024/01/04 09:04:38;;;;;;;0.80;0.70;;;7.80;97.30;;;;;;4950186;29;20419;-88
2024/01/04 09:07:05;;;;;;;0.90;0.80;;;7.80;97.30;;;;;;4950722;28;20184;-88
2024/01/04 09:09:30;;;;;;;0.80;0.70;;;7.90;97.30;;;;;;4948996;29;20183;-88
2024/01/04 09:11:56;;;;;;;0.90;0.80;;;8.00;97.30;;;;;;4953433;28;20831;-88
2024/01/04 09:14:22;;;;;;;0.90;0.80;;;8.10;97.30;;;;;;4950341;28;20191;-90
2024/01/04 09:16:48;;;;;;;0.90;0.80;;;8.10;97.30;;;;;;4951442;29;20784;-88
2024/01/04 09:19:14;;;;;;;0.90;0.80;;;8.10;97.30;;;;;;4953718;29;20186;-88
2024/01/04 09:21:42;;;;;;;0.87;0.77;;;8.10;97.30;;;;;;4951464;28;20697;-89
2024/01/04 09:24:08;;;;;;;2.30;1.30;;;8.10;97.30;;;;;;4952615;28;20462;-88
2024/01/04 09:26:37;;;;;;;0.80;0.70;;;8.10;97.30;;;;;;4952533;29;20462;-89
2024/01/04 09:29:03;;;;;;;0.90;0.80;;;8.20;97.30;;;;;;4951324;28;20187;-88
2024/01/04 09:31:28;;;;;;;0.90;0.80;;;8.20;97.30;;;;;;4949674;28;20471;-88
2024/01/04 09:33:55;;;;;;;1.07;0.97;;;8.20;97.30;;;;;;4951515;29;20257;-88
2024/01/04 09:36:20;;;;;;;0.90;0.80;;;8.10;97.30;;;;;;4952861;28;20225;-89
2024/01/04 09:38:46;;;;;;;1.00;0.90;;;8.10;97.30;;;;;;4969119;28;20458;-89
2024/01/04 09:41:35;;;;;;;1.03;1.00;;;8.20;97.30;;;;;;4952440;28;20556;-90
2024/01/04 09:44:06;;;;;;;0.80;0.70;;;8.20;97.30;;;;;;4952695;28;20187;-88
2024/01/04 09:46:39;;;;;;;0.93;0.83;;;8.20;97.30;;;;;;4949524;28;20423;-89
2024/01/04 09:49:06;;;;;;;0.80;0.70;;;8.20;97.30;;;;;;4952288;29;20486;-87
2024/01/04 09:51:39;;;;;;;0.87;0.77;;;8.20;97.30;;;;;;4952603;28;20472;-89
2024/01/04 09:54:09;;;;;;;0.90;0.80;;;8.20;97.30;;;;;;4952430;28;20462;-88
2024/01/04 09:56:38;;;;;;;0.87;0.77;;;8.20;97.30;;;;;;4952427;29;20438;-88
2024/01/04 09:59:03;;;;;;;1.10;1.00;;;8.20;97.30;;;;;;4952361;29;20434;-88
2024/01/04 10:01:33;;;;;;;0.90;0.80;;;8.20;97.30;;;;;;4976419;28;20459;-89
2024/01/04 10:04:13;;;;;;;0.90;0.80;;;8.20;97.30;;;;;;4957489;28;20724;-92
2024/01/04 10:06:46;;;;;;;0.90;0.80;;;8.20;97.30;;;;;;4952842;28;20470;-89
2024/01/04 10:09:28;;;;;;;0.90;0.80;;;8.20;97.30;;;;;;4945607;29;20885;-89
2024/01/04 10:11:56;;;;;;;1.10;1.00;;;8.20;97.30;;;;;;4952370;28;20478;-89
2024/01/04 10:14:27;;;;;;;0.90;0.80;;;8.20;97.30;;;;;;4952224;28;20470;-89
2024/01/04 10:16:53;;;;;;;0.80;0.70;;;8.20;97.30;;;;;;4952164;28;20470;-88
2024/01/04 10:19:19;;;;;;;0.90;0.80;;;8.20;97.30;;;;;;4967770;28;20960;-88
2024/01/04 10:21:45;;;;;;;1.00;0.90;;;8.20;97.30;;;;;;4952103;28;20474;-88
2024/01/04 10:24:15;;;;;;;0.80;0.70;;;8.20;97.30;;;;;;4943537;29;20505;-88
2024/01/04 10:26:44;;;;;;;0.90;0.80;;;8.20;97.30;;;;;;4952040;28;20195;-89
2024/01/04 10:29:10;;;;;;;1.00;0.90;;;8.30;97.30;;;;;;4952106;28;20438;-89
2024/01/04 10:31:36;;;;;;;0.90;0.80;;;8.30;97.30;;;;;;4967907;28;20778;-89
2024/01/04 10:34:01;;;;;;;0.90;0.80;;;8.30;97.30;;;;;;4952022;28;20325;-89
2024/01/04 10:36:32;;;;;;;1.03;0.93;;;8.30;97.30;;;;;;4949231;28;20199;-89
2024/01/04 10:39:00;;;;;;;1.00;0.90;;;8.30;97.30;;;;;;4949814;28;20435;-89
2024/01/04 10:41:28;;;;;;;1.00;0.90;;;8.10;97.30;;;;;;4950805;28;20467;-90
2024/01/04 10:44:13;;;;;;;1.33;0.97;;;7.90;97.30;;;;;;4952258;28;20433;-90
2024/01/04 10:46:42;;;;;;;0.90;0.80;;;7.60;97.30;;;;;;4952204;29;20454;-91
2024/01/04 10:49:07;;;;;;;1.43;1.13;;;7.40;97.30;;;;;;4951135;28;20798;-90
2024/01/04 10:51:33;;;;;;;0.90;0.80;;;7.30;97.30;;;;;;4952013;28;20466;-91
2024/01/04 10:54:00;;;;;;;1.00;0.90;;;7.10;97.30;;;;;;4952925;28;20668;-90
2024/01/04 10:56:30;;;;;;;1.00;0.90;;;7.00;97.30;;;;;;4952602;28;20270;-91
2024/01/04 10:58:57;;;;;;;0.93;0.83;;;6.90;97.30;;;;;;4953061;28;20421;-90
2024/01/04 11:01:22;;;;;;;1.10;1.00;;;6.90;97.30;;;;;;4951195;28;20817;-89
2024/01/04 11:03:49;;;;;;;0.90;0.80;;;6.90;97.30;;;;;;4951348;29;20454;-90
2024/01/04 11:06:15;;;;;;;0.80;0.70;;;6.80;97.30;;;;;;4950778;28;20195;-90
2024/01/04 11:08:41;;;;;;;0.90;0.80;;;6.80;97.30;;;;;;4965293;28;20433;-89
2024/01/04 11:11:09;;;;;;;1.23;1.10;;;6.80;97.30;;;;;;4954573;29;20537;-90
2024/01/04 11:13:35;;;;;;;1.00;0.90;;;6.70;97.30;;;;;;4953486;28;20894;-90
2024/01/04 11:16:07;;;;;;;1.00;0.90;;;6.70;97.30;;;;;;4968815;28;20809;-91
2024/01/04 11:19:07;;;;;;;1.00;0.90;;;6.70;97.30;;;;;;4953441;28;20245;-89
2024/01/04 11:21:59;;;;;;;1.10;1.00;;;6.70;97.30;;;;;;4947556;28;20984;-90
2024/01/04 11:24:50;;;;;;;0.90;0.80;;;6.70;97.30;;;;;;4947378;29;20489;-91
2024/01/04 11:27:17;;;;;;;1.00;0.90;;;6.60;97.30;;;;;;4945470;29;20458;-90
2024/01/04 11:29:44;;;;;;;1.50;1.40;;;6.60;97.30;;;;;;4953200;29;20506;-90
2024/01/04 11:32:10;;;;;;;1.00;0.90;;;6.60;97.30;;;;;;4968656;28;20474;-89
2024/01/04 11:34:38;;;;;;;1.00;0.90;;;6.60;97.30;;;;;;4954482;28;20501;-88
2024/01/04 11:37:16;;;;;;;0.97;0.87;;;6.60;97.30;;;;;;4952969;29;20481;-89
2024/01/04 11:40:03;;;;;;;1.00;0.90;;;6.50;97.30;;;;;;4969500;28;20502;-89
2024/01/04 11:42:41;;;;;;;1.83;1.73;;;6.50;97.30;;;;;;4948981;28;20447;-90
2024/01/04 11:45:17;;;;;;;0.90;0.80;;;6.50;97.30;;;;;;4959202;28;20465;-88
2024/01/04 11:47:47;;;;;;;1.00;0.90;;;6.40;97.30;;;;;;4953449;28;20493;-89
2024/01/04 11:50:28;;;;;;;1.00;0.90;;;6.40;97.30;;;;;;4969482;28;21036;-90
2024/01/04 11:53:09;;;;;;;1.40;1.30;;;6.40;97.30;;;;;;4953701;28;20489;-91
2024/01/04 11:55:36;;;;;;;0.90;0.80;;;6.40;97.30;;;;;;4956655;28;20431;-90
2024/01/04 11:58:08;;;;;;;1.00;0.90;;;6.40;97.30;;;;;;4972003;28;20437;-90
2024/01/04 12:00:38;;;;;;;1.00;0.90;;;6.50;97.30;;;;;;4957477;28;20457;-91
2024/01/04 12:03:15;;;;;;;1.30;1.23;;;6.50;97.30;;;;;;4957708;28;20785;-90
2024/01/04 12:05:45;;;;;;;1.00;0.90;;;6.50;97.30;;;;;;4954926;28;20446;-90
2024/01/04 12:08:23;;;;;;;0.90;0.80;;;6.40;97.30;;;;;;4956741;28;20668;-90
2024/01/04 12:10:56;;;;;;;1.10;1.00;;;6.50;97.30;;;;;;4971329;28;20456;-90
2024/01/04 12:13:22;;;;;;;1.00;0.90;;;6.40;97.30;;;;;;4949582;29;20471;-90
2024/01/04 12:15:47;;;;;;;1.00;0.90;;;6.40;97.30;;;;;;4955282;28;20426;-93
2024/01/04 12:18:13;;;;;;;2.03;1.53;;;6.40;97.30;;;;;;4955595;28;20481;-90
2024/01/04 12:20:39;;;;;;;1.00;0.90;;;6.40;97.30;;;;;;4971081;28;20199;-90
2024/01/04 12:23:06;;;;;;;0.93;0.87;;;6.30;97.30;;;;;;4994693;23;20199;-91
2024/01/04 12:25:34;;;;;;;1.00;0.90;;;6.40;97.30;;;;;;4920694;29;20529;-88
2024/01/04 12:28:01;;;;;;;0.90;0.80;;;6.40;97.30;;;;;;4932499;29;20432;-89
2024/01/04 12:30:27;;;;;;;1.27;1.17;;;6.40;97.30;;;;;;4927937;29;20413;-89
2024/01/04 12:32:55;;;;;;;1.50;1.40;;;6.40;97.30;;;;;;4943715;29;20814;-89
2024/01/04 12:35:21;;;;;;;1.00;0.90;;;6.40;97.30;;;;;;4919830;29;20841;-89
2024/01/04 12:37:56;;;;;;;1.57;1.00;;;6.40;97.30;;;;;;4925139;29;20502;-90
2024/01/04 12:40:22;;;;;;;10.63;1.50;;;6.40;97.30;;;;;;4916311;29;20227;-90
2024/01/04 12:42:48;;;;;;;1.57;1.47;;;6.40;97.30;;;;;;4946501;29;20458;-89
2024/01/04 12:45:13;;;;;;;0.90;0.80;;;6.40;97.30;;;;;;4934712;29;20199;-88
2024/01/04 12:47:39;;;;;;;1.10;1.00;;;6.30;97.30;;;;;;4925822;29;20189;-90
2024/01/04 12:50:05;;;;;;;6.63;3.20;;;6.30;97.30;;;;;;4945448;29;20179;-89
2024/01/04 12:52:30;;;;;;;0.93;0.83;;;6.30;97.30;;;;;;4926476;29;20215;-91
2024/01/04 12:54:56;;;;;;;1.13;1.03;;;6.30;97.30;;;;;;4926727;29;20440;-91
2024/01/04 12:57:22;;;;;;;1.10;1.00;;;6.20;97.30;;;;;;4919280;29;20439;-90
2024/01/04 12:59:47;;;;;;;1.00;0.90;;;6.20;97.30;;;;;;4935444;29;20172;-90
2024/01/04 13:02:13;;;;;;;1.10;1.00;;;6.20;97.30;;;;;;4934559;29;20502;-89
2024/01/04 13:04:39;;;;;;;1.70;1.60;;;6.20;97.30;;;;;;4925765;29;20209;-89
2024/01/04 13:07:04;;;;;;;1.00;0.90;;;6.20;97.30;;;;;;4945936;29;20188;-89
2024/01/04 13:09:31;;;;;;;1.07;0.97;;;6.20;97.30;;;;;;4934326;29;20188;-89
2024/01/04 13:11:57;;;;;;;0.90;0.80;;;6.10;97.30;;;;;;4935521;29;20196;-89
2024/01/04 13:14:22;;;;;;;2.00;1.43;;;6.10;97.30;;;;;;4926115;29;20538;-89
2024/01/04 13:16:50;;;;;;;1.00;0.90;;;6.10;97.30;;;;;;4928450;29;20180;-91
2024/01/04 13:19:16;;;;;;;1.33;1.33;;;6.10;97.30;;;;;;4932910;29;20215;-88
2024/01/04 13:21:42;;;;;;;0.83;0.73;;;6.10;97.30;;;;;;4929048;29;20493;-89
2024/01/04 13:24:07;;;;;;;0.90;0.80;;;6.10;97.30;;;;;;4939658;28;20485;-88
2024/01/04 13:26:33;;;;;;;1.00;0.90;;;6.10;97.30;;;;;;4926137;29;20215;-88
2024/01/04 13:29:00;;;;;;;1.10;1.00;;;6.10;97.30;;;;;;4934108;29;20195;-91
2024/01/04 13:31:25;;;;;;;0.90;0.90;;;6.10;97.30;;;;;;4934158;29;20688;-88
2024/01/04 13:33:51;;;;;;;1.00;0.90;;;6.20;97.30;;;;;;4933853;29;20475;-90
2024/01/04 13:36:17;;;;;;;1.00;0.90;;;6.10;97.30;;;;;;4934111;29;20187;-88
2024/01/04 13:38:42;;;;;;;1.67;1.57;;;6.00;97.30;;;;;;4924842;29;20275;-89
2024/01/04 13:41:07;;;;;;;1.00;0.90;;;5.90;97.30;;;;;;4937581;29;20191;-90
2024/01/04 13:43:33;;;;;;;1.53;1.43;;;5.90;97.30;;;;;;4925814;29;20314;-88
2024/01/04 13:45:59;;;;;;;0.90;0.80;;;5.80;97.30;;;;;;4934152;29;20201;-92
2024/01/04 13:48:25;;;;;;;1.63;1.53;;;5.80;97.30;;;;;;4921131;29;20207;-90
2024/01/04 13:50:50;;;;;;;0.93;0.87;;;5.70;97.30;;;;;;4916971;29;20181;-88
2024/01/04 13:53:16;;;;;;;1.00;0.90;;;5.70;97.30;;;;;;4932522;29;20476;-89
2024/01/04 13:55:41;;;;;;;1.40;1.30;;;5.60;97.30;;;;;;4917463;29;20655;-88
2024/01/04 13:58:07;;;;;;;1.00;0.90;;;5.60;97.30;;;;;;4918985;29;20240;-88
2024/01/04 14:00:33;;;;;;;1.37;1.27;;;5.60;97.30;;;;;;4924035;29;20204;-91
2024/01/04 14:03:00;;;;;;;1.00;0.90;;;5.50;97.30;;;;;;4938415;29;20240;-95
2024/01/04 14:05:25;;;;;;;0.97;0.87;;;5.50;97.30;;;;;;4938546;29;20192;-91
2024/01/04 14:07:53;;;;;;;1.10;1.00;;;5.50;97.30;;;;;;4925976;29;20581;-89
2024/01/04 14:10:18;;;;;;;0.97;0.87;;;5.50;97.30;;;;;;4914849;29;20436;-91
2024/01/04 14:12:44;;;;;;;0.87;0.77;;;5.40;97.30;;;;;;4913178;29;20271;-87
2024/01/04 14:15:09;;;;;;;1.50;1.40;;;5.40;97.30;;;;;;4911264;29;20295;-88
2024/01/04 14:17:38;;;;;;;1.07;0.97;;;5.40;97.30;;;;;;4913834;29;20240;-92
2024/01/04 14:20:08;;;;;;;1.00;0.90;;;5.40;97.30;;;;;;4928215;29;20220;-91
2024/01/04 14:22:34;;;;;;;1.20;1.10;;;5.30;97.30;;;;;;4918785;29;20425;-90
2024/01/04 14:24:59;;;;;;;2.90;2.23;;;5.30;97.30;;;;;;4913011;29;20491;-91
2024/01/04 14:27:26;;;;;;;1.40;1.30;;;5.30;97.30;;;;;;4928970;29;20192;-90
2024/01/04 14:29:52;;;;;;;1.10;1.00;;;5.30;97.30;;;;;;4925742;29;20216;-90
2024/01/04 14:32:18;;;;;;;1.00;0.90;;;5.30;97.30;;;;;;4911917;29;21454;-90
2024/01/04 14:34:44;;;;;;;4.00;1.27;;;5.20;97.30;;;;;;4909067;29;21074;-90
2024/01/04 14:37:09;;;;;;;1.10;1.00;;;5.20;97.30;;;;;;4905344;29;20449;-92
2024/01/04 14:39:37;;;;;;;1.10;1.00;;;5.10;97.30;;;;;;4909696;29;20181;-91
2024/01/04 14:42:03;;;;;;;1.10;1.00;;;5.10;97.30;;;;;;4912307;29;20187;-91
2024/01/04 14:44:29;;;;;;;2.43;1.50;;;5.10;97.30;;;;;;4918310;29;20541;-92
2024/01/04 14:46:55;;;;;;;1.40;1.20;;;5.00;97.30;;;;;;4918614;29;20517;-90
2024/01/04 14:49:21;;;;;;;2.63;1.50;;;5.00;97.30;;;;;;4911800;29;20195;-91
2024/01/04 14:51:46;;;;;;;1.00;0.90;;;5.00;97.30;;;;;;4914100;29;20468;-91
2024/01/04 14:54:12;;;;;;;1.23;1.13;;;4.90;97.30;;;;;;4913742;29;20263;-91
2024/01/04 14:56:37;;;;;;;2.30;1.50;;;4.90;97.30;;;;;;4913249;29;20184;-89
2024/01/04 14:59:06;;;;;;;1.00;0.90;;;4.90;97.30;;;;;;4912821;29;20208;-90
2024/01/04 15:01:32;;;;;;;1.10;1.00;;;4.90;97.30;;;;;;4905688;29;20191;-90
2024/01/04 15:03:58;;;;;;;1.40;1.30;;;4.90;97.30;;;;;;4913085;29;20448;-90
2024/01/04 15:06:24;;;;;;;1.80;1.70;;;4.90;97.30;;;;;;4905357;29;20204;-90
2024/01/04 15:08:50;;;;;;;1.00;0.90;;;4.90;97.30;;;;;;4913487;29;20517;-90
2024/01/04 15:11:16;;;;;;;1.10;1.00;;;4.90;97.30;;;;;;4913159;29;20455;-90
2024/01/04 15:13:42;;;;;;;15.73;1.93;;;4.80;97.30;;;;;;4914255;29;20562;-92
2024/01/04 15:16:08;;;;;;;2.27;2.07;;;4.80;97.30;;;;;;4912862;29;20452;-92
2024/01/04 15:18:34;;;;;;;2.33;1.67;;;4.80;97.30;;;;;;4914446;29;20176;-91
2024/01/04 15:20:59;;;;;;;1.10;1.00;;;4.80;97.30;;;;;;4912891;29;20433;-90
2024/01/04 15:23:24;;;;;;;1.30;1.20;;;4.70;97.30;;;;;;4912671;29;20244;-91
2024/01/04 15:25:50;;;;;;;1.13;1.03;;;4.70;97.30;;;;;;4912918;29;20188;-91
2024/01/04 15:28:16;;;;;;;1.37;1.30;;;4.70;97.30;;;;;;4916752;29;20374;-91
2024/01/04 15:30:41;;;;;;;1.87;1.77;;;4.70;97.30;;;;;;4916728;29;20189;-91
2024/01/04 15:33:08;;;;;;;1.80;1.73;;;4.70;97.30;;;;;;4918521;29;20212;-90
2024/01/04 15:35:34;;;;;;;1.20;1.10;;;4.70;97.30;;;;;;4910333;29;20184;-91
2024/01/04 15:38:00;;;;;;;1.20;1.10;;;4.60;97.30;;;;;;4917108;29;20793;-91
2024/01/04 15:40:25;;;;;;;2.03;1.20;;;4.60;97.30;;;;;;4918051;29;20428;-91
2024/01/04 15:42:52;;;;;;;1.23;1.13;;;4.60;97.30;;;;;;4916585;29;20283;-93
2024/01/04 15:45:17;;;;;;;1.30;1.20;;;4.60;97.30;;;;;;4919984;29;20194;-91
2024/01/04 15:47:43;;;;;;;1.10;1.00;;;4.50;97.30;;;;;;4932837;29;20448;-92
2024/01/04 15:50:09;;;;;;;1.13;1.00;;;4.50;97.30;;;;;;4915959;29;20583;-94
2024/01/04 15:52:34;;;;;;;1.10;1.00;;;4.50;97.30;;;;;;4915965;29;20466;-90
2024/01/04 15:55:00;;;;;;;1.20;1.10;;;4.50;97.30;;;;;;4916530;29;20196;-92
2024/01/04 15:57:25;;;;;;;1.00;0.90;;;4.40;97.30;;;;;;4916838;29;20181;-91
2024/01/04 15:59:52;;;;;;;1.37;1.07;;;4.40;97.30;;;;;;4916942;29;20659;-91
2024/01/04 16:02:17;;;;;;;1.67;1.30;;;4.40;97.30;;;;;;4917158;29;20565;-91
2024/01/04 16:04:43;;;;;;;1.10;1.00;;;4.40;97.30;;;;;;4916894;29;20448;-92
2024/01/04 16:07:08;;;;;;;1.10;1.00;;;4.40;97.30;;;;;;4916789;29;20184;-91
2024/01/04 16:09:35;;;;;;;3.37;3.17;;;4.40;97.30;;;;;;4911366;29;20316;-91
2024/01/04 16:12:00;;;;;;;1.10;1.00;;;4.40;97.30;;;;;;4916198;29;20646;-90
2024/01/04 16:14:26;;;;;;;1.67;1.47;;;4.40;97.30;;;;;;4915946;29;20440;-92
2024/01/04 16:16:51;;;;;;;1.40;1.30;;;4.40;97.30;;;;;;4916949;29;20244;-90
2024/01/04 16:19:17;;;;;;;1.13;1.03;;;4.40;97.30;;;;;;4915928;29;20188;-91
2024/01/04 16:21:42;;;;;;;1.20;1.10;;;4.40;97.30;;;;;;4912697;29;20407;-91
2024/01/04 16:24:08;;;;;;;0.90;0.80;;;4.40;97.30;;;;;;4911797;29;20256;-91
2024/01/04 16:26:34;;;;;;;1.87;1.23;;;4.30;97.30;;;;;;4915573;29;20200;-90
2024/01/04 16:29:00;;;;;;;1.90;1.30;;;4.30;97.30;;;;;;4917094;29;20588;-90
2024/01/04 16:31:26;;;;;;;1.20;1.10;;;4.30;97.30;;;;;;4914417;29;20429;-93
2024/01/04 16:33:51;;;;;;;1.27;1.17;;;4.30;97.30;;;;;;4912416;29;20445;-91
2024/01/04 16:36:18;;;;;;;1.00;0.90;;;4.30;97.30;;;;;;4910347;29;20185;-89
2024/01/04 16:38:44;;;;;;;1.10;1.00;;;4.30;97.30;;;;;;4907366;29;20577;-89
2024/01/04 16:41:11;;;;;;;1.50;1.40;;;4.30;97.30;;;;;;4917374;29;20977;-91
2024/01/04 16:43:38;;;;;;;1.00;0.90;;;4.30;97.30;;;;;;4916032;29;20666;-89
2024/01/04 16:46:04;;;;;;;1.10;1.00;;;4.30;97.30;;;;;;4916792;29;20431;-89
2024/01/04 16:48:29;;;;;;;0.97;0.87;;;4.30;97.30;;;;;;4914862;29;20783;-89
2024/01/04 16:50:55;;;;;;;1.37;1.27;;;4.30;97.30;;;;;;4906597;29;20181;-89
2024/01/04 16:53:22;;;;;;;1.20;1.10;;;4.30;97.30;;;;;;4914119;29;20220;-89
2024/01/04 16:55:47;;;;;;;1.73;1.60;;;4.30;97.30;;;;;;4912193;29;20525;-89
2024/01/04 16:58:16;;;;;;;1.37;1.27;;;4.20;97.30;;;;;;4912302;29;20424;-90
2024/01/04 17:00:44;;;;;;;0.93;0.83;;;4.20;97.30;;;;;;4916365;29;20187;-91
2024/01/04 17:03:10;;;;;;;1.80;1.70;;;4.20;97.30;;;;;;4912186;29;20425;-89
2024/01/04 17:05:36;;;;;;;1.93;1.00;;;4.20;97.30;;;;;;4918088;29;20679;-89
2024/01/04 17:08:04;;;;;;;1.33;1.23;;;4.20;97.30;;;;;;4923875;29;20463;-89
2024/01/04 17:10:29;;;;;;;1.53;1.23;;;4.20;97.30;;;;;;4913463;29;20525;-91
2024/01/04 17:12:55;;;;;;;1.10;1.00;;;4.20;97.30;;;;;;4906389;29;20555;-90
2024/01/04 17:15:20;;;;;;;1.17;1.07;;;4.10;97.30;;;;;;4906564;29;20187;-89
2024/01/04 17:17:45;;;;;;;2.33;2.03;;;4.10;97.30;;;;;;4908881;29;20215;-91
2024/01/04 17:20:11;;;;;;;1.20;1.10;;;4.10;97.30;;;;;;4915083;29;20185;-90
2024/01/04 17:22:38;;;;;;;1.00;0.90;;;4.10;97.30;;;;;;4914285;29;20639;-89
2024/01/04 17:25:03;;;;;;;1.10;1.00;;;4.10;97.30;;;;;;4911306;29;20743;-90
2024/01/04 17:27:29;;;;;;;3.13;1.57;;;4.00;97.30;;;;;;4912015;29;20460;-89
2024/01/04 17:29:54;;;;;;;1.20;1.10;;;4.00;97.30;;;;;;4914900;29;20251;-89
2024/01/04 17:32:23;;;;;;;1.93;1.40;;;4.00;97.30;;;;;;4911571;29;20256;-90
2024/01/04 17:34:49;;;;;;;2.10;1.50;;;4.00;97.30;;;;;;4910343;29;20229;-91
2024/01/04 17:37:16;;;;;;;1.50;1.40;;;4.00;97.30;;;;;;4910808;29;20477;-89
2024/01/04 17:39:41;;;;;;;1.00;0.90;;;4.00;97.30;;;;;;4914198;29;20185;-91
2024/01/04 17:42:07;;;;;;;1.00;0.90;;;3.90;97.30;;;;;;4903272;29;20486;-89
2024/01/04 17:44:32;;;;;;;1.53;1.43;;;3.90;97.30;;;;;;4912627;29;20294;-90
2024/01/04 17:46:59;;;;;;;1.00;0.90;;;3.90;97.30;;;;;;4913891;29;20265;-90
2024/01/04 17:49:24;;;;;;;1.27;1.23;;;3.90;97.30;;;;;;4911030;29;20189;-90
2024/01/04 17:51:50;;;;;;;1.30;1.20;;;3.90;97.30;;;;;;4907746;29;20464;-90
2024/01/04 17:54:15;;;;;;;2.33;2.13;;;3.90;97.30;;;;;;4915367;29;20750;-89
2024/01/04 17:56:41;;;;;;;1.40;1.30;;;3.90;97.30;;;;;;4907192;29;20181;-90
2024/01/04 17:59:06;;;;;;;3.33;2.83;;;3.90;97.30;;;;;;4914576;29;20532;-90
2024/01/04 18:01:33;;;;;;;1.40;1.33;;;3.80;97.30;;;;;;4908829;29;20184;-90
2024/01/04 18:03:59;;;;;;;3.80;1.77;;;3.80;97.30;;;;;;4916890;29;20204;-90
2024/01/04 18:06:25;;;;;;;1.20;1.10;;;3.70;97.30;;;;;;4912114;29;20419;-89
2024/01/04 18:08:51;;;;;;;1.00;0.90;;;3.70;97.30;;;;;;4910419;29;20802;-90